sensor_id;sensor_type;location;lat;lon;timestamp;pressure;altitude;pressure_sealevel;temperature;humidity
5062;BME280;2351;50.812;12.872;2023-02-15T00:01:11;99319.50;;;-2.19;90.92
5062;BME280;2351;50.812;12.872;2023-02-15T00:03:42;99315.19;;;-2.20;91.03
5062;BME280;2351;50.812;12.872;2023-02-15T00:06:14;99314.31;;;-2.20;91.22
5062;BME280;2351;50.812;12.872;2023-02-15T00:08:47;99315.22;;;-2.21;91.71
5062;BME280;2351;50.812;12.872;2023-02-15T00:11:19;99315.22;;;-2.23;91.92
5062;BME280;2351;50.812;12.872;2023-02-15T00:14:11;99316.13;;;-2.25;91.79
5062;BME280;2351;50.812;12.872;2023-02-15T00:16:44;99304.94;;;-2.31;91.49
5062;BME280;2351;50.812;12.872;2023-02-15T00:19:20;99303.25;;;-2.35;91.76
5062;BME280;2351;50.812;12.872;2023-02-15T00:21:52;99303.31;;;-2.39;92.19
5062;BME280;2351;50.812;12.872;2023-02-15T00:24:25;99306.78;;;-2.40;91.64
5062;BME280;2351;50.812;12.872;2023-02-15T00:26:57;99298.16;;;-2.43;91.67
5062;BME280;2351;50.812;12.872;2023-02-15T00:29:29;99304.25;;;-2.45;92.56
5062;BME280;2351;50.812;12.872;2023-02-15T00:32:01;99299.94;;;-2.48;92.18
5062;BME280;2351;50.812;12.872;2023-02-15T00:34:32;99295.66;;;-2.50;91.73
5062;BME280;2351;50.812;12.872;2023-02-15T00:37:04;99292.25;;;-2.54;91.78
5062;BME280;2351;50.812;12.872;2023-02-15T00:39:37;99287.94;;;-2.55;92.30
5062;BME280;2351;50.812;12.872;2023-02-15T00:42:09;99281.06;;;-2.59;92.46
5062;BME280;2351;50.812;12.872;2023-02-15T00:44:41;99288.00;;;-2.61;92.00
5062;BME280;2351;50.812;12.872;2023-02-15T00:47:12;99283.69;;;-2.64;92.61
5062;BME280;2351;50.812;12.872;2023-02-15T00:49:44;99285.50;;;-2.69;92.62
5062;BME280;2351;50.812;12.872;2023-02-15T00:52:15;99285.53;;;-2.72;92.48
5062;BME280;2351;50.812;12.872;2023-02-15T00:54:49;99282.09;;;-2.74;92.80
5062;BME280;2351;50.812;12.872;2023-02-15T00:57:20;99287.28;;;-2.76;92.69
5062;BME280;2351;50.812;12.872;2023-02-15T00:59:52;99292.47;;;-2.77;92.48
5062;BME280;2351;50.812;12.872;2023-02-15T01:02:24;99293.38;;;-2.80;92.78
5062;BME280;2351;50.812;12.872;2023-02-15T01:04:55;99283.91;;;-2.81;92.68
5062;BME280;2351;50.812;12.872;2023-02-15T01:07:27;99289.06;;;-2.81;93.15
5062;BME280;2351;50.812;12.872;2023-02-15T01:10:00;99289.94;;;-2.82;92.84
5062;BME280;2351;50.812;12.872;2023-02-15T01:12:32;99288.22;;;-2.83;93.18
5062;BME280;2351;50.812;12.872;2023-02-15T01:15:04;99289.09;;;-2.84;93.32
5062;BME280;2351;50.812;12.872;2023-02-15T01:17:35;99286.50;;;-2.85;93.54
5062;BME280;2351;50.812;12.872;2023-02-15T01:20:07;99289.97;;;-2.85;93.52
5062;BME280;2351;50.812;12.872;2023-02-15T01:22:39;99282.19;;;-2.87;93.53
5062;BME280;2351;50.812;12.872;2023-02-15T01:25:12;99281.34;;;-2.87;93.30
5062;BME280;2351;50.812;12.872;2023-02-15T01:27:44;99273.63;;;-2.89;93.49
5062;BME280;2351;50.812;12.872;2023-02-15T01:30:16;99270.16;;;-2.91;93.44
5062;BME280;2351;50.812;12.872;2023-02-15T01:32:48;99265.00;;;-2.94;93.72
5062;BME280;2351;50.812;12.872;2023-02-15T01:35:20;99265.88;;;-2.95;93.84
5062;BME280;2351;50.812;12.872;2023-02-15T01:37:52;99262.44;;;-2.95;93.59
5062;BME280;2351;50.812;12.872;2023-02-15T01:40:25;99266.75;;;-2.97;93.76
5062;BME280;2351;50.812;12.872;2023-02-15T01:42:57;99254.75;;;-3.01;93.77
5062;BME280;2351;50.812;12.872;2023-02-15T01:45:30;99254.75;;;-3.06;94.07
5062;BME280;2351;50.812;12.872;2023-02-15T01:48:04;99247.91;;;-3.10;93.76
5062;BME280;2351;50.812;12.872;2023-02-15T01:50:38;99242.75;;;-3.15;94.36
5062;BME280;2351;50.812;12.872;2023-02-15T01:53:15;99244.50;;;-3.17;94.29
5062;BME280;2351;50.812;12.872;2023-02-15T01:55:53;99241.09;;;-3.21;93.76
5062;BME280;2351;50.812;12.872;2023-02-15T01:58:27;99239.41;;;-3.23;94.25
5062;BME280;2351;50.812;12.872;2023-02-15T02:01:00;99232.50;;;-3.26;94.39
5062;BME280;2351;50.812;12.872;2023-02-15T02:03:40;99233.41;;;-3.28;94.64
5062;BME280;2351;50.812;12.872;2023-02-15T02:06:14;99227.34;;;-3.29;94.26
5062;BME280;2351;50.812;12.872;2023-02-15T02:08:46;99227.34;;;-3.29;94.62
5062;BME280;2351;50.812;12.872;2023-02-15T02:11:20;99223.03;;;-3.28;94.30
5062;BME280;2351;50.812;12.872;2023-02-15T02:13:53;99216.97;;;-3.29;94.55
5062;BME280;2351;50.812;12.872;2023-02-15T02:16:30;99226.50;;;-3.29;94.50
5062;BME280;2351;50.812;12.872;2023-02-15T02:19:26;99213.56;;;-3.31;94.73
5062;BME280;2351;50.812;12.872;2023-02-15T02:22:25;99221.34;;;-3.33;94.70
5062;BME280;2351;50.812;12.872;2023-02-15T02:25:17;99208.44;;;-3.34;95.02
5062;BME280;2351;50.812;12.872;2023-02-15T02:28:02;99216.19;;;-3.36;94.84
5062;BME280;2351;50.812;12.872;2023-02-15T02:30:53;99207.56;;;-3.35;95.37
5062;BME280;2351;50.812;12.872;2023-02-15T02:33:46;99199.78;;;-3.35;95.48
5062;BME280;2351;50.812;12.872;2023-02-15T02:36:25;99199.81;;;-3.38;95.63
5062;BME280;2351;50.812;12.872;2023-02-15T02:39:13;99204.19;;;-3.43;95.46
5062;BME280;2351;50.812;12.872;2023-02-15T02:41:56;99199.03;;;-3.46;95.24
5062;BME280;2351;50.812;12.872;2023-02-15T02:44:35;99189.56;;;-3.50;95.79
5062;BME280;2351;50.812;12.872;2023-02-15T02:47:16;99187.00;;;-3.53;95.50
5062;BME280;2351;50.812;12.872;2023-02-15T02:49:58;99176.66;;;-3.53;95.37
5062;BME280;2351;50.812;12.872;2023-02-15T02:52:37;99178.41;;;-3.55;95.69
5062;BME280;2351;50.812;12.872;2023-02-15T02:55:13;99183.56;;;-3.54;96.06
5062;BME280;2351;50.812;12.872;2023-02-15T02:57:52;99181.00;;;-3.55;95.82
5062;BME280;2351;50.812;12.872;2023-02-15T03:00:27;99175.84;;;-3.60;95.63
5062;BME280;2351;50.812;12.872;2023-02-15T03:03:06;99185.38;;;-3.65;96.00
5062;BME280;2351;50.812;12.872;2023-02-15T03:05:45;99179.38;;;-3.67;95.72
5062;BME280;2351;50.812;12.872;2023-02-15T03:08:19;99176.81;;;-3.69;95.88
5062;BME280;2351;50.812;12.872;2023-02-15T03:10:55;99172.50;;;-3.71;95.91
5062;BME280;2351;50.812;12.872;2023-02-15T03:13:27;99179.41;;;-3.73;95.96
5062;BME280;2351;50.812;12.872;2023-02-15T03:16:00;99175.09;;;-3.74;95.99
5062;BME280;2351;50.812;12.872;2023-02-15T03:18:53;99169.09;;;-3.76;96.13
5062;BME280;2351;50.812;12.872;2023-02-15T03:21:32;99163.06;;;-3.77;96.64
5062;BME280;2351;50.812;12.872;2023-02-15T03:24:08;99163.06;;;-3.75;96.37
5062;BME280;2351;50.812;12.872;2023-02-15T03:26:43;99173.38;;;-3.74;96.81
5062;BME280;2351;50.812;12.872;2023-02-15T03:29:19;99169.97;;;-3.78;96.21
5062;BME280;2351;50.812;12.872;2023-02-15T03:31:54;99175.16;;;-3.79;96.65
5062;BME280;2351;50.812;12.872;2023-02-15T03:34:30;99176.03;;;-3.83;96.62
5062;BME280;2351;50.812;12.872;2023-02-15T03:37:09;99172.59;;;-3.85;96.62
5062;BME280;2351;50.812;12.872;2023-02-15T03:39:47;99168.31;;;-3.86;96.74
5062;BME280;2351;50.812;12.872;2023-02-15T03:42:25;99173.50;;;-3.86;97.17
5062;BME280;2351;50.812;12.872;2023-02-15T03:45:01;99161.41;;;-3.86;97.10
5062;BME280;2351;50.812;12.872;2023-02-15T03:47:36;99154.47;;;-3.81;97.22
5062;BME280;2351;50.812;12.872;2023-02-15T03:50:13;99159.59;;;-3.76;97.11
5062;BME280;2351;50.812;12.872;2023-02-15T03:53:03;99159.56;;;-3.74;97.55
5062;BME280;2351;50.812;12.872;2023-02-15T03:55:37;99159.59;;;-3.76;97.17
5062;BME280;2351;50.812;12.872;2023-02-15T03:58:09;99145.00;;;-3.82;97.32
5062;BME280;2351;50.812;12.872;2023-02-15T04:00:59;99148.44;;;-3.80;97.65
5062;BME280;2351;50.812;12.872;2023-02-15T04:03:53;99152.72;;;-3.80;97.34
5062;BME280;2351;50.812;12.872;2023-02-15T04:06:28;99149.28;;;-3.81;97.45
5062;BME280;2351;50.812;12.872;2023-02-15T04:09:01;99151.88;;;-3.82;97.64
5062;BME280;2351;50.812;12.872;2023-02-15T04:11:50;99155.38;;;-3.85;97.60
5062;BME280;2351;50.812;12.872;2023-02-15T04:14:22;99154.53;;;-3.88;97.73
5062;BME280;2351;50.812;12.872;2023-02-15T04:17:12;99157.13;;;-3.93;97.36
5062;BME280;2351;50.812;12.872;2023-02-15T04:19:43;99156.34;;;-4.00;97.41
5062;BME280;2351;50.812;12.872;2023-02-15T04:22:32;99158.97;;;-4.04;97.92
5062;BME280;2351;50.812;12.872;2023-02-15T04:25:23;99160.69;;;-4.06;97.42
5062;BME280;2351;50.812;12.872;2023-02-15T04:27:55;99155.53;;;-4.10;97.68
5062;BME280;2351;50.812;12.872;2023-02-15T04:30:26;99149.53;;;-4.12;97.61
5062;BME280;2351;50.812;12.872;2023-02-15T04:32:58;99154.72;;;-4.13;97.84
5062;BME280;2351;50.812;12.872;2023-02-15T04:35:30;99146.13;;;-4.18;97.61
5062;BME280;2351;50.812;12.872;2023-02-15T04:38:03;99147.88;;;-4.24;97.83
5062;BME280;2351;50.812;12.872;2023-02-15T04:40:36;99147.91;;;-4.27;97.77
5062;BME280;2351;50.812;12.872;2023-02-15T04:43:08;99145.34;;;-4.31;97.77
5062;BME280;2351;50.812;12.872;2023-02-15T04:45:40;99138.47;;;-4.32;97.89
5062;BME280;2351;50.812;12.872;2023-02-15T04:48:11;99137.63;;;-4.33;98.19
5062;BME280;2351;50.812;12.872;2023-02-15T04:50:44;99131.56;;;-4.33;98.22
5062;BME280;2351;50.812;12.872;2023-02-15T04:53:15;99123.81;;;-4.33;98.05
5062;BME280;2351;50.812;12.872;2023-02-15T04:55:49;99126.41;;;-4.33;98.93
5062;BME280;2351;50.812;12.872;2023-02-15T04:58:21;99129.81;;;-4.27;98.42
5062;BME280;2351;50.812;12.872;2023-02-15T05:00:54;99121.97;;;-4.19;98.35
5062;BME280;2351;50.812;12.872;2023-02-15T05:03:26;99120.25;;;-4.15;98.73
5062;BME280;2351;50.812;12.872;2023-02-15T05:05:58;99112.50;;;-4.15;98.68
5062;BME280;2351;50.812;12.872;2023-02-15T05:08:30;99118.56;;;-4.19;98.55
5062;BME280;2351;50.812;12.872;2023-02-15T05:11:03;99120.31;;;-4.23;98.46
5062;BME280;2351;50.812;12.872;2023-02-15T05:13:35;99120.31;;;-4.28;99.25
5062;BME280;2351;50.812;12.872;2023-02-15T05:16:07;99125.53;;;-4.31;98.88
5062;BME280;2351;50.812;12.872;2023-02-15T05:18:39;99121.25;;;-4.35;98.86
5062;BME280;2351;50.812;12.872;2023-02-15T05:21:10;99114.34;;;-4.38;98.63
5062;BME280;2351;50.812;12.872;2023-02-15T05:23:43;99115.28;;;-4.42;98.85
5062;BME280;2351;50.812;12.872;2023-02-15T05:26:18;99120.44;;;-4.43;98.96
5062;BME280;2351;50.812;12.872;2023-02-15T05:29:08;99115.28;;;-4.46;98.94
5062;BME280;2351;50.812;12.872;2023-02-15T05:31:40;99122.19;;;-4.48;99.00
5062;BME280;2351;50.812;12.872;2023-02-15T05:34:14;99125.63;;;-4.49;99.07
5062;BME280;2351;50.812;12.872;2023-02-15T05:36:46;99129.09;;;-4.50;99.15
5062;BME280;2351;50.812;12.872;2023-02-15T05:39:17;99125.66;;;-4.54;98.99
5062;BME280;2351;50.812;12.872;2023-02-15T05:41:51;99130.00;;;-4.55;98.89
5062;BME280;2351;50.812;12.872;2023-02-15T05:44:22;99132.59;;;-4.55;99.32
5062;BME280;2351;50.812;12.872;2023-02-15T05:46:55;99117.09;;;-4.59;99.05
5062;BME280;2351;50.812;12.872;2023-02-15T05:49:26;99129.16;;;-4.61;99.17
5062;BME280;2351;50.812;12.872;2023-02-15T05:51:58;99120.56;;;-4.65;99.49
5062;BME280;2351;50.812;12.872;2023-02-15T05:54:30;99126.59;;;-4.66;99.02
5062;BME280;2351;50.812;12.872;2023-02-15T05:57:03;99130.06;;;-4.69;99.25
5062;BME280;2351;50.812;12.872;2023-02-15T05:59:35;99127.47;;;-4.70;99.36
5062;BME280;2351;50.812;12.872;2023-02-15T06:02:07;99130.09;;;-4.72;99.52
5062;BME280;2351;50.812;12.872;2023-02-15T06:04:41;99124.91;;;-4.72;99.39
5062;BME280;2351;50.812;12.872;2023-02-15T06:07:13;99124.91;;;-4.72;99.75
5062;BME280;2351;50.812;12.872;2023-02-15T06:09:45;99124.06;;;-4.71;99.38
5062;BME280;2351;50.812;12.872;2023-02-15T06:12:18;99130.06;;;-4.69;99.78
5062;BME280;2351;50.812;12.872;2023-02-15T06:14:49;99125.75;;;-4.65;99.66
5062;BME280;2351;50.812;12.872;2023-02-15T06:17:21;99134.34;;;-4.66;99.79
5062;BME280;2351;50.812;12.872;2023-02-15T06:19:53;99135.22;;;-4.67;99.60
5062;BME280;2351;50.812;12.872;2023-02-15T06:22:25;99133.53;;;-4.70;99.62
5062;BME280;2351;50.812;12.872;2023-02-15T06:24:56;99136.09;;;-4.70;99.82
5062;BME280;2351;50.812;12.872;2023-02-15T06:27:29;99134.38;;;-4.71;99.91
5062;BME280;2351;50.812;12.872;2023-02-15T06:30:01;99136.09;;;-4.68;99.82
5062;BME280;2351;50.812;12.872;2023-02-15T06:32:33;99140.38;;;-4.67;99.97
5062;BME280;2351;50.812;12.872;2023-02-15T06:35:05;99132.59;;;-4.62;100.00
5062;BME280;2351;50.812;12.872;2023-02-15T06:37:37;99129.16;;;-4.60;100.00
5062;BME280;2351;50.812;12.872;2023-02-15T06:40:09;99128.28;;;-4.56;100.00
5062;BME280;2351;50.812;12.872;2023-02-15T06:42:42;99125.69;;;-4.56;100.00
5062;BME280;2351;50.812;12.872;2023-02-15T06:45:14;99126.56;;;-4.57;100.00
5062;BME280;2351;50.812;12.872;2023-02-15T06:47:46;99127.41;;;-4.56;100.00
5062;BME280;2351;50.812;12.872;2023-02-15T06:50:18;99130.84;;;-4.54;100.00
5062;BME280;2351;50.812;12.872;2023-02-15T06:52:55;99131.59;;;-4.36;100.00
5062;BME280;2351;50.812;12.872;2023-02-15T06:55:27;99128.66;;;-3.88;100.00
5062;BME280;2351;50.812;12.872;2023-02-15T06:58:00;99121.25;;;-3.37;100.00
5062;BME280;2351;50.812;12.872;2023-02-15T07:00:31;99120.56;;;-2.76;100.00
5062;BME280;2351;50.812;12.872;2023-02-15T07:03:03;99123.09;;;-2.10;100.00
5062;BME280;2351;50.812;12.872;2023-02-15T07:05:35;99119.44;;;-1.48;100.00
5062;BME280;2351;50.812;12.872;2023-02-15T07:08:07;99118.44;;;-0.55;100.00
5062;BME280;2351;50.812;12.872;2023-02-15T07:10:38;99109.16;;;0.77;100.00
5062;BME280;2351;50.812;12.872;2023-02-15T07:13:11;99100.19;;;2.29;100.00
5062;BME280;2351;50.812;12.872;2023-02-15T07:15:42;99097.16;;;3.84;100.00
5062;BME280;2351;50.812;12.872;2023-02-15T07:18:14;99086.81;;;5.24;100.00
5062;BME280;2351;50.812;12.872;2023-02-15T07:20:46;99076.22;;;6.54;100.00
5062;BME280;2351;50.812;12.872;2023-02-15T07:23:18;99064.16;;;7.65;100.00
5062;BME280;2351;50.812;12.872;2023-02-15T07:25:56;99062.78;;;8.51;100.00
5062;BME280;2351;50.812;12.872;2023-02-15T07:28:29;99049.47;;;9.39;100.00
5062;BME280;2351;50.812;12.872;2023-02-15T07:31:02;99051.94;;;10.10;100.00
5062;BME280;2351;50.812;12.872;2023-02-15T07:33:34;99050.91;;;10.66;96.82
5062;BME280;2351;50.812;12.872;2023-02-15T07:36:06;99049.69;;;10.96;94.90
5062;BME280;2351;50.812;12.872;2023-02-15T07:38:41;99043.44;;;10.97;95.82
5062;BME280;2351;50.812;12.872;2023-02-15T07:41:13;99040.72;;;10.85;98.04
5062;BME280;2351;50.812;12.872;2023-02-15T07:43:47;99031.22;;;10.70;98.59
5062;BME280;2351;50.812;12.872;2023-02-15T07:46:18;99038.69;;;10.76;98.25
5062;BME280;2351;50.812;12.872;2023-02-15T07:48:51;99033.06;;;10.94;96.02
5062;BME280;2351;50.812;12.872;2023-02-15T07:51:22;99028.66;;;10.81;95.56
5062;BME280;2351;50.812;12.872;2023-02-15T07:53:54;99030.53;;;10.53;94.03
5062;BME280;2351;50.812;12.872;2023-02-15T07:56:26;99023.19;;;10.18;94.88
5062;BME280;2351;50.812;12.872;2023-02-15T07:58:59;99027.75;;;10.29;94.30
5062;BME280;2351;50.812;12.872;2023-02-15T08:01:35;99025.47;;;10.50;96.70
5062;BME280;2351;50.812;12.872;2023-02-15T08:04:07;99020.44;;;11.10;93.64
5062;BME280;2351;50.812;12.872;2023-02-15T08:06:41;99017.47;;;11.77;87.74
5062;BME280;2351;50.812;12.872;2023-02-15T08:09:12;99002.88;;;12.07;82.28
5062;BME280;2351;50.812;12.872;2023-02-15T08:11:44;98998.22;;;12.22;82.56
5062;BME280;2351;50.812;12.872;2023-02-15T08:14:21;99003.44;;;12.34;82.42
5062;BME280;2351;50.812;12.872;2023-02-15T08:16:54;99001.09;;;12.07;79.01
5062;BME280;2351;50.812;12.872;2023-02-15T08:19:27;98994.50;;;11.64;78.95
5062;BME280;2351;50.812;12.872;2023-02-15T08:22:01;98999.13;;;11.73;82.29
5062;BME280;2351;50.812;12.872;2023-02-15T08:24:35;98989.47;;;12.55;77.17
5062;BME280;2351;50.812;12.872;2023-02-15T08:27:10;98998.16;;;13.03;76.73
5062;BME280;2351;50.812;12.872;2023-02-15T08:29:43;98992.16;;;13.89;73.13
5062;BME280;2351;50.812;12.872;2023-02-15T08:32:15;98991.09;;;14.34;72.30
5062;BME280;2351;50.812;12.872;2023-02-15T08:34:47;98986.38;;;14.68;73.71
5062;BME280;2351;50.812;12.872;2023-02-15T08:37:19;98984.78;;;15.38;70.70
5062;BME280;2351;50.812;12.872;2023-02-15T08:39:51;98980.22;;;15.99;58.16
5062;BME280;2351;50.812;12.872;2023-02-15T08:42:23;98981.59;;;15.03;53.24
5062;BME280;2351;50.812;12.872;2023-02-15T08:44:56;98978.31;;;13.30;53.47
5062;BME280;2351;50.812;12.872;2023-02-15T08:47:27;98980.09;;;11.80;54.51
5062;BME280;2351;50.812;12.872;2023-02-15T08:49:59;98985.22;;;10.71;58.26
5062;BME280;2351;50.812;12.872;2023-02-15T08:52:31;98987.72;;;10.08;62.17
5062;BME280;2351;50.812;12.872;2023-02-15T08:55:03;98987.28;;;9.61;63.89
5062;BME280;2351;50.812;12.872;2023-02-15T08:57:35;98986.56;;;9.31;65.08
5062;BME280;2351;50.812;12.872;2023-02-15T09:00:09;98980.38;;;9.03;64.07
5062;BME280;2351;50.812;12.872;2023-02-15T09:02:42;98976.66;;;8.64;62.18
5062;BME280;2351;50.812;12.872;2023-02-15T09:05:14;98975.09;;;8.31;64.19
5062;BME280;2351;50.812;12.872;2023-02-15T09:07:45;98982.06;;;8.18;65.56
5062;BME280;2351;50.812;12.872;2023-02-15T09:10:17;98988.53;;;8.71;74.49
5062;BME280;2351;50.812;12.872;2023-02-15T09:12:49;98979.06;;;10.32;76.07
5062;BME280;2351;50.812;12.872;2023-02-15T09:15:22;98961.88;;;11.99;73.25
5062;BME280;2351;50.812;12.872;2023-02-15T09:17:54;98954.78;;;13.02;68.66
5062;BME280;2351;50.812;12.872;2023-02-15T09:20:26;98955.19;;;14.07;57.36
5062;BME280;2351;50.812;12.872;2023-02-15T09:22:58;98949.19;;;13.93;58.42
5062;BME280;2351;50.812;12.872;2023-02-15T09:25:31;98957.06;;;13.95;59.65
5062;BME280;2351;50.812;12.872;2023-02-15T09:28:03;98945.97;;;14.11;58.64
5062;BME280;2351;50.812;12.872;2023-02-15T09:30:36;98956.78;;;14.19;57.18
5062;BME280;2351;50.812;12.872;2023-02-15T09:33:07;98951.75;;;13.95;54.76
5062;BME280;2351;50.812;12.872;2023-02-15T09:35:39;98950.66;;;13.65;53.43
5062;BME280;2351;50.812;12.872;2023-02-15T09:38:35;98948.66;;;13.57;56.14
5062;BME280;2351;50.812;12.872;2023-02-15T09:41:27;98945.50;;;13.52;55.14
5062;BME280;2351;50.812;12.872;2023-02-15T09:44:12;98950.56;;;13.11;56.15
5062;BME280;2351;50.812;12.872;2023-02-15T09:47:02;98950.94;;;12.84;53.90
5062;BME280;2351;50.812;12.872;2023-02-15T09:49:46;98951.44;;;12.43;52.74
5062;BME280;2351;50.812;12.872;2023-02-15T09:55:28;98944.06;;;12.47;54.74
5062;BME280;2351;50.812;12.872;2023-02-15T09:58:09;98942.41;;;12.69;55.47
5062;BME280;2351;50.812;12.872;2023-02-15T10:00:50;98941.63;;;13.01;55.30
5062;BME280;2351;50.812;12.872;2023-02-15T10:03:37;98940.63;;;13.13;55.75
5062;BME280;2351;50.812;12.872;2023-02-15T10:06:25;98927.25;;;13.15;53.35
5062;BME280;2351;50.812;12.872;2023-02-15T10:09:06;98934.63;;;13.00;50.73
5062;BME280;2351;50.812;12.872;2023-02-15T10:11:51;98930.94;;;12.79;50.99
5062;BME280;2351;50.812;12.872;2023-02-15T10:14:39;98925.38;;;12.71;52.16
5062;BME280;2351;50.812;12.872;2023-02-15T10:17:23;98931.28;;;12.52;50.79
5062;BME280;2351;50.812;12.872;2023-02-15T10:20:11;98929.25;;;12.33;49.55
5062;BME280;2351;50.812;12.872;2023-02-15T10:23:06;98930.03;;;12.11;48.80
5062;BME280;2351;50.812;12.872;2023-02-15T10:25:44;98927.81;;;11.93;47.04
5062;BME280;2351;50.812;12.872;2023-02-15T10:28:20;98928.56;;;11.71;46.90
5062;BME280;2351;50.812;12.872;2023-02-15T10:30:59;98923.38;;;11.58;47.91
5062;BME280;2351;50.812;12.872;2023-02-15T10:33:38;98926.84;;;11.58;48.00
5062;BME280;2351;50.812;12.872;2023-02-15T10:36:23;98919.78;;;11.70;49.21
5062;BME280;2351;50.812;12.872;2023-02-15T10:39:04;98916.19;;;11.71;48.34
5062;BME280;2351;50.812;12.872;2023-02-15T10:41:41;98911.41;;;11.88;49.06
5062;BME280;2351;50.812;12.872;2023-02-15T10:44:27;98905.94;;;12.14;49.05
5062;BME280;2351;50.812;12.872;2023-02-15T10:47:30;98898.94;;;12.13;47.72
5062;BME280;2351;50.812;12.872;2023-02-15T10:50:14;98903.41;;;12.12;47.36
5062;BME280;2351;50.812;12.872;2023-02-15T10:52:58;98897.50;;;12.20;47.16
5062;BME280;2351;50.812;12.872;2023-02-15T10:55:42;98896.53;;;12.21;44.25
5062;BME280;2351;50.812;12.872;2023-02-15T10:58:29;98891.81;;;12.25;42.96
5062;BME280;2351;50.812;12.872;2023-02-15T11:01:11;98890.84;;;12.03;41.14
5062;BME280;2351;50.812;12.872;2023-02-15T11:04:08;98895.31;;;12.14;42.88
5062;BME280;2351;50.812;12.872;2023-02-15T11:06:44;98899.44;;;12.41;42.33
5062;BME280;2351;50.812;12.872;2023-02-15T11:09:25;98895.31;;;12.48;43.34
5062;BME280;2351;50.812;12.872;2023-02-15T11:12:01;98894.72;;;12.78;44.23
5062;BME280;2351;50.812;12.872;2023-02-15T11:14:37;98889.16;;;13.14;43.54
5062;BME280;2351;50.812;12.872;2023-02-15T11:17:12;98880.59;;;13.22;42.38
5062;BME280;2351;50.812;12.872;2023-02-15T11:19:50;98889.03;;;13.60;43.39
5062;BME280;2351;50.812;12.872;2023-02-15T11:22:24;98882.13;;;13.24;33.89
5062;BME280;2351;50.812;12.872;2023-02-15T11:24:58;98883.28;;;13.54;37.16
5062;BME280;2351;50.812;12.872;2023-02-15T11:27:32;98883.59;;;13.82;38.74
5062;BME280;2351;50.812;12.872;2023-02-15T11:30:06;98874.31;;;14.29;38.19
5062;BME280;2351;50.812;12.872;2023-02-15T11:32:44;98868.88;;;14.71;38.17
5062;BME280;2351;50.812;12.872;2023-02-15T11:35:22;98859.41;;;14.98;36.73
5062;BME280;2351;50.812;12.872;2023-02-15T11:38:01;98859.84;;;15.23;35.97
5062;BME280;2351;50.812;12.872;2023-02-15T11:40:44;98861.81;;;15.41;35.60
5062;BME280;2351;50.812;12.872;2023-02-15T11:43:22;98864.47;;;15.60;35.34
5062;BME280;2351;50.812;12.872;2023-02-15T11:45:55;98860.50;;;15.74;35.02
5062;BME280;2351;50.812;12.872;2023-02-15T11:48:38;98849.97;;;15.92;34.53
5062;BME280;2351;50.812;12.872;2023-02-15T11:51:20;98847.28;;;16.02;33.91
5062;BME280;2351;50.812;12.872;2023-02-15T11:53:54;98845.88;;;15.98;32.84
5062;BME280;2351;50.812;12.872;2023-02-15T11:56:31;98845.63;;;15.91;32.42
5062;BME280;2351;50.812;12.872;2023-02-15T11:59:17;98844.38;;;15.76;31.52
5062;BME280;2351;50.812;12.872;2023-02-15T12:01:52;98843.81;;;15.72;31.98
5062;BME280;2351;50.812;12.872;2023-02-15T12:04:34;98841.13;;;15.82;32.05
5062;BME280;2351;50.812;12.872;2023-02-15T12:07:13;98839.44;;;15.71;31.72
5062;BME280;2351;50.812;12.872;2023-02-15T12:09:55;98837.78;;;15.60;32.61
5062;BME280;2351;50.812;12.872;2023-02-15T12:12:37;98841.03;;;15.64;32.58
5062;BME280;2351;50.812;12.872;2023-02-15T12:15:32;98838.06;;;15.47;32.66
5062;BME280;2351;50.812;12.872;2023-02-15T12:18:40;98837.25;;;15.27;33.21
5062;BME280;2351;50.812;12.872;2023-02-15T12:21:23;98834.44;;;15.19;33.42
5062;BME280;2351;50.812;12.872;2023-02-15T12:24:14;98823.66;;;15.20;34.22
5062;BME280;2351;50.812;12.872;2023-02-15T12:27:13;98829.97;;;15.19;34.38
5062;BME280;2351;50.812;12.872;2023-02-15T12:29:52;98827.69;;;15.15;34.38
5062;BME280;2351;50.812;12.872;2023-02-15T12:32:33;98824.47;;;15.01;34.73
5062;BME280;2351;50.812;12.872;2023-02-15T12:35:09;98823.06;;;15.07;35.20
5062;BME280;2351;50.812;12.872;2023-02-15T12:37:52;98819.69;;;15.05;35.10
5062;BME280;2351;50.812;12.872;2023-02-15T12:40:29;98818.00;;;14.74;35.17
5062;BME280;2351;50.812;12.872;2023-02-15T12:43:04;98821.16;;;14.58;35.28
5062;BME280;2351;50.812;12.872;2023-02-15T12:45:40;98825.63;;;14.48;35.95
5062;BME280;2351;50.812;12.872;2023-02-15T12:48:17;98829.97;;;14.49;36.33
5062;BME280;2351;50.812;12.872;2023-02-15T12:50:50;98823.50;;;14.52;36.77
5062;BME280;2351;50.812;12.872;2023-02-15T12:53:31;98828.41;;;14.46;37.12
5062;BME280;2351;50.812;12.872;2023-02-15T12:56:26;98816.22;;;14.44;37.22
5062;BME280;2351;50.812;12.872;2023-02-15T12:59:04;98819.13;;;14.41;37.33
5062;BME280;2351;50.812;12.872;2023-02-15T13:01:38;98810.72;;;14.36;37.36
5062;BME280;2351;50.812;12.872;2023-02-15T13:04:20;98812.69;;;14.34;37.74
5062;BME280;2351;50.812;12.872;2023-02-15T13:07:01;98806.94;;;14.38;37.98
5062;BME280;2351;50.812;12.872;2023-02-15T13:09:37;98804.94;;;14.21;37.26
5062;BME280;2351;50.812;12.872;2023-02-15T13:12:17;98819.91;;;13.91;38.04
5062;BME280;2351;50.812;12.872;2023-02-15T13:14:54;98825.56;;;13.97;38.28
5062;BME280;2351;50.812;12.872;2023-02-15T13:17:30;98824.84;;;13.95;38.08
5062;BME280;2351;50.812;12.872;2023-02-15T13:20:06;98817.88;;;14.04;37.83
5062;BME280;2351;50.812;12.872;2023-02-15T13:22:55;98822.09;;;14.07;37.83
5062;BME280;2351;50.812;12.872;2023-02-15T13:25:31;98818.63;;;14.16;37.99
5062;BME280;2351;50.812;12.872;2023-02-15T13:28:13;98806.75;;;14.20;37.28
5062;BME280;2351;50.812;12.872;2023-02-15T13:30:50;98810.25;;;14.21;37.88
5062;BME280;2351;50.812;12.872;2023-02-15T13:33:29;98816.00;;;14.26;37.55
5062;BME280;2351;50.812;12.872;2023-02-15T13:36:07;98802.91;;;14.13;37.25
5062;BME280;2351;50.812;12.872;2023-02-15T13:39:06;98809.44;;;13.68;36.96
5062;BME280;2351;50.812;12.872;2023-02-15T13:41:49;98813.84;;;13.79;37.90
5062;BME280;2351;50.812;12.872;2023-02-15T13:44:31;98812.16;;;13.78;37.23
5062;BME280;2351;50.812;12.872;2023-02-15T13:47:31;98809.38;;;13.58;37.63
5062;BME280;2351;50.812;12.872;2023-02-15T13:50:38;98807.19;;;13.63;37.29
5062;BME280;2351;50.812;12.872;2023-02-15T13:53:39;98814.63;;;13.48;37.57
5062;BME280;2351;50.812;12.872;2023-02-15T13:56:45;98805.84;;;13.58;37.88
5062;BME280;2351;50.812;12.872;2023-02-15T13:59:47;98811.03;;;13.80;37.41
5062;BME280;2351;50.812;12.872;2023-02-15T14:02:49;98809.53;;;13.88;37.12
5062;BME280;2351;50.812;12.872;2023-02-15T14:06:02;98806.97;;;13.76;36.60